createdAt,value
2017-11-17T00:00:08.175Z,0.00
2017-11-17T00:01:08.169Z,0.00
2017-11-17T00:02:08.162Z,0.00
2017-11-17T00:03:08.164Z,0.00
2017-11-17T00:04:08.156Z,0.00
2017-11-17T00:05:08.153Z,0.00
2017-11-17T00:06:08.143Z,0.00
2017-11-17T00:07:08.134Z,0.00
2017-11-17T00:08:08.128Z,0.00
2017-11-17T00:09:08.122Z,0.00
2017-11-17T00:10:08.116Z,0.00
2017-11-17T00:11:08.112Z,0.00
2017-11-17T00:12:08.105Z,0.00
2017-11-17T00:13:08.099Z,0.00
2017-11-17T00:14:08.093Z,0.00
2017-11-17T00:15:08.091Z,0.00
2017-11-17T00:16:08.087Z,0.00
2017-11-17T00:17:08.079Z,0.00
2017-11-17T00:18:08.073Z,0.00
2017-11-17T00:19:08.067Z,0.00
2017-11-17T00:20:08.063Z,0.00
2017-11-17T00:21:08.056Z,0.00
2017-11-17T00:22:08.049Z,0.00
2017-11-17T00:23:08.040Z,0.00
2017-11-17T00:24:08.033Z,0.00
2017-11-17T00:25:08.027Z,0.00
2017-11-17T00:26:08.026Z,0.00
2017-11-17T00:27:08.014Z,0.00
2017-11-17T00:28:08.014Z,0.00
2017-11-17T00:29:08.006Z,0.00
2017-11-17T00:30:08.004Z,0.00
2017-11-17T00:31:07.993Z,0.00
2017-11-17T00:32:07.989Z,0.00
2017-11-17T00:33:07.984Z,0.00
2017-11-17T00:34:07.977Z,0.00
2017-11-17T00:35:07.970Z,0.00
2017-11-17T00:36:07.965Z,0.00
2017-11-17T00:37:07.960Z,0.00
2017-11-17T00:38:07.954Z,0.00
2017-11-17T00:39:07.969Z,0.00
2017-11-17T00:40:07.937Z,0.00
2017-11-17T00:41:07.932Z,0.00
2017-11-17T00:42:07.924Z,0.00
2017-11-17T00:43:07.917Z,0.00
2017-11-17T00:44:07.914Z,0.00
2017-11-17T00:45:07.906Z,0.00
2017-11-17T00:46:07.899Z,0.00
2017-11-17T00:47:07.899Z,0.00
2017-11-17T00:48:07.893Z,0.00
2017-11-17T00:49:07.886Z,0.00
2017-11-17T00:50:07.881Z,0.00
2017-11-17T00:51:07.875Z,0.00
2017-11-17T00:52:07.869Z,0.00
2017-11-17T00:53:07.866Z,0.00
2017-11-17T00:54:07.856Z,0.00
2017-11-17T00:55:07.846Z,0.00
2017-11-17T00:56:07.841Z,0.00
2017-11-17T00:57:07.835Z,0.00
2017-11-17T00:58:07.829Z,0.00
2017-11-17T00:59:07.823Z,0.00
2017-11-17T01:00:07.816Z,0.00
2017-11-17T01:01:07.810Z,0.00
2017-11-17T01:02:07.843Z,0.00
2017-11-17T01:03:07.803Z,0.00
2017-11-17T01:04:07.798Z,0.00
2017-11-17T01:05:07.791Z,0.00
2017-11-17T01:06:07.784Z,0.00
2017-11-17T01:07:07.780Z,0.00
2017-11-17T01:08:07.774Z,0.00
2017-11-17T01:09:07.768Z,0.00
2017-11-17T01:10:07.764Z,0.00
2017-11-17T01:11:07.751Z,0.00
2017-11-17T01:12:07.749Z,0.00
2017-11-17T01:13:07.739Z,0.00
2017-11-17T01:14:07.734Z,0.00
2017-11-17T01:15:07.727Z,0.00
2017-11-17T01:16:07.723Z,0.00
2017-11-17T01:17:07.717Z,0.00
2017-11-17T01:18:07.710Z,0.00
2017-11-17T01:19:07.718Z,0.00
2017-11-17T01:20:07.704Z,0.00
2017-11-17T01:21:07.696Z,0.00
2017-11-17T01:22:07.691Z,0.00
2017-11-17T01:23:07.685Z,0.00
2017-11-17T01:24:07.680Z,0.00
2017-11-17T01:25:07.673Z,0.00
2017-11-17T01:26:07.668Z,0.00
2017-11-17T01:27:07.657Z,0.00
2017-11-17T01:28:07.652Z,0.00
2017-11-17T01:29:07.647Z,0.00
2017-11-17T01:30:07.640Z,0.00
2017-11-17T01:31:07.632Z,0.00
2017-11-17T01:32:07.628Z,0.00
2017-11-17T01:33:07.622Z,0.00
2017-11-17T01:34:07.616Z,0.00
2017-11-17T01:35:07.615Z,0.00
2017-11-17T01:36:07.610Z,0.00
2017-11-17T01:37:07.604Z,0.00
2017-11-17T01:38:07.598Z,0.00
2017-11-17T01:39:07.590Z,0.00
2017-11-17T01:40:07.585Z,0.00
2017-11-17T01:41:07.579Z,0.00
2017-11-17T01:42:07.575Z,0.00
2017-11-17T01:43:07.564Z,0.00
2017-11-17T01:44:07.559Z,0.00
2017-11-17T01:45:07.556Z,0.00
2017-11-17T01:46:07.545Z,0.00
2017-11-17T01:47:07.541Z,0.00
2017-11-17T01:48:07.538Z,0.00
2017-11-17T01:49:07.530Z,0.00
2017-11-17T01:50:07.523Z,0.00
2017-11-17T01:51:07.523Z,0.00
2017-11-17T01:52:07.516Z,0.00
2017-11-17T01:53:07.511Z,0.00
2017-11-17T01:54:07.503Z,0.00
2017-11-17T01:55:07.499Z,0.00
2017-11-17T01:56:07.493Z,0.00
2017-11-17T01:57:07.488Z,0.00
2017-11-17T01:58:07.481Z,0.00
2017-11-17T01:59:07.472Z,0.00
2017-11-17T02:00:07.467Z,0.00
2017-11-17T02:01:07.459Z,0.00
2017-11-17T02:02:07.454Z,0.00
2017-11-17T02:03:07.449Z,0.00
2017-11-17T02:04:07.441Z,0.00
2017-11-17T02:05:07.438Z,0.00
2017-11-17T02:06:07.429Z,0.00
2017-11-17T02:07:07.430Z,0.00
2017-11-17T02:08:07.423Z,0.00
2017-11-17T02:09:07.418Z,0.00
2017-11-17T02:10:07.410Z,0.00
2017-11-17T02:11:07.402Z,0.00
2017-11-17T02:12:07.396Z,0.00
2017-11-17T02:13:07.391Z,0.00
2017-11-17T02:14:07.385Z,0.00
2017-11-17T02:15:07.383Z,0.00
2017-11-17T02:16:07.377Z,0.00
2017-11-17T02:17:07.371Z,0.00
2017-11-17T02:18:07.366Z,0.00
2017-11-17T02:19:07.359Z,0.00
2017-11-17T02:20:07.354Z,0.00
2017-11-17T02:21:07.349Z,0.00
2017-11-17T02:22:07.341Z,0.00
2017-11-17T02:23:07.334Z,0.00
2017-11-17T02:24:07.327Z,0.00
2017-11-17T02:25:07.321Z,0.00
2017-11-17T02:26:07.341Z,0.00
2017-11-17T02:27:07.309Z,0.00
2017-11-17T02:28:07.305Z,0.00
2017-11-17T02:29:07.298Z,0.00
2017-11-17T02:30:07.292Z,0.00
2017-11-17T02:31:07.291Z,0.00
2017-11-17T02:32:07.291Z,0.00
2017-11-17T02:33:07.278Z,0.00
2017-11-17T02:34:07.272Z,0.00
2017-11-17T02:35:07.266Z,0.00
2017-11-17T02:36:07.259Z,0.00
2017-11-17T02:37:07.255Z,0.00
2017-11-17T02:38:07.262Z,0.00
2017-11-17T02:39:07.242Z,0.00
2017-11-17T02:40:07.238Z,0.00
2017-11-17T02:41:07.228Z,0.00
2017-11-17T02:42:07.223Z,0.00
2017-11-17T02:43:07.215Z,0.00
2017-11-17T02:44:07.211Z,0.00
2017-11-17T02:45:07.206Z,0.00
2017-11-17T02:46:07.197Z,0.00
2017-11-17T02:47:07.196Z,0.00
2017-11-17T02:48:07.192Z,0.00
2017-11-17T02:49:07.187Z,0.00
2017-11-17T02:50:07.180Z,0.00
2017-11-17T02:51:07.181Z,0.00
2017-11-17T02:52:07.171Z,0.00
2017-11-17T02:53:07.167Z,0.00
2017-11-17T02:54:07.157Z,0.00
2017-11-17T02:55:07.148Z,0.00
2017-11-17T02:56:07.141Z,0.00
2017-11-17T02:57:07.137Z,0.00
2017-11-17T02:58:07.130Z,0.00
2017-11-17T02:59:07.124Z,0.00
2017-11-17T03:00:07.119Z,0.00
2017-11-17T03:01:07.114Z,0.00
2017-11-17T03:02:07.106Z,0.00
2017-11-17T03:03:07.105Z,0.00
2017-11-17T03:04:07.102Z,0.00
2017-11-17T03:05:07.094Z,0.00
2017-11-17T03:06:07.088Z,0.00
2017-11-17T03:07:07.083Z,0.00
2017-11-17T03:08:07.076Z,0.00
2017-11-17T03:09:07.072Z,0.00
2017-11-17T03:10:07.066Z,0.00
2017-11-17T03:11:07.054Z,0.00
2017-11-17T03:12:07.051Z,0.00
2017-11-17T03:13:07.044Z,0.00
2017-11-17T03:14:07.038Z,0.00
2017-11-17T03:15:07.035Z,0.00
2017-11-17T03:16:07.031Z,0.00
2017-11-17T03:17:07.025Z,0.00
2017-11-17T03:18:07.017Z,0.00
2017-11-17T03:19:07.008Z,0.00
2017-11-17T03:20:07.005Z,0.00
2017-11-17T03:21:06.997Z,0.00
2017-11-17T03:22:06.990Z,0.00
2017-11-17T03:23:06.984Z,0.00
2017-11-17T03:24:06.980Z,0.00
2017-11-17T03:25:06.974Z,0.00
2017-11-17T03:26:06.968Z,0.00
2017-11-17T03:27:06.969Z,0.00
2017-11-17T03:28:06.959Z,0.00
2017-11-17T03:29:06.955Z,0.00
2017-11-17T03:30:06.951Z,0.00
2017-11-17T03:31:06.946Z,0.00
2017-11-17T03:32:06.936Z,0.00
2017-11-17T03:33:06.932Z,0.00
2017-11-17T03:34:06.925Z,0.00
2017-11-17T03:35:06.915Z,0.00
2017-11-17T03:36:06.909Z,0.00
2017-11-17T03:37:06.902Z,0.00
2017-11-17T03:38:06.897Z,0.00
2017-11-17T03:39:06.892Z,0.00
2017-11-17T03:40:06.885Z,0.00
2017-11-17T03:41:06.881Z,0.00
2017-11-17T03:42:06.874Z,0.00
2017-11-17T03:43:06.873Z,0.00
2017-11-17T03:44:06.883Z,0.00
2017-11-17T03:45:06.865Z,0.00
2017-11-17T03:46:06.855Z,0.00
2017-11-17T03:47:06.849Z,0.00
2017-11-17T03:48:06.842Z,0.00
2017-11-17T03:49:06.838Z,0.00
2017-11-17T03:50:06.830Z,0.00
2017-11-17T03:51:06.820Z,0.00
2017-11-17T03:52:06.814Z,0.00
2017-11-17T03:53:06.821Z,0.00
2017-11-17T03:54:06.803Z,0.00
2017-11-17T03:55:06.796Z,0.00
2017-11-17T03:56:06.791Z,0.00
2017-11-17T03:57:06.785Z,0.00
2017-11-17T03:58:06.779Z,0.00
2017-11-17T03:59:06.777Z,0.00
2017-11-17T04:00:06.772Z,0.00
2017-11-17T04:01:06.775Z,0.00
2017-11-17T04:02:06.760Z,0.00
2017-11-17T04:03:06.757Z,0.00
2017-11-17T04:04:06.750Z,0.00
2017-11-17T04:05:06.742Z,0.00
2017-11-17T04:06:06.737Z,0.00
2017-11-17T04:07:06.725Z,0.00
2017-11-17T04:08:06.720Z,0.00
2017-11-17T04:09:06.715Z,0.00
2017-11-17T04:10:06.708Z,0.00
2017-11-17T04:11:06.702Z,0.00
2017-11-17T04:12:06.700Z,0.00
2017-11-17T04:13:06.691Z,0.00
2017-11-17T04:14:06.685Z,0.00
2017-11-17T04:15:06.685Z,0.00
2017-11-17T04:16:06.683Z,0.00
2017-11-17T04:17:06.672Z,0.00
2017-11-17T04:18:06.664Z,0.00
2017-11-17T04:19:06.660Z,0.00
2017-11-17T04:20:06.650Z,0.00
2017-11-17T04:21:06.644Z,0.00
2017-11-17T04:22:06.637Z,0.00
2017-11-17T04:23:06.637Z,0.00
2017-11-17T04:24:06.630Z,0.00
2017-11-17T04:25:06.624Z,0.00
2017-11-17T04:26:06.619Z,0.00
2017-11-17T04:27:06.612Z,0.00
2017-11-17T04:28:06.609Z,0.00
2017-11-17T04:29:06.601Z,0.00
2017-11-17T04:30:06.595Z,0.00
2017-11-17T04:31:06.585Z,0.00
2017-11-17T04:32:06.579Z,0.00
2017-11-17T04:33:06.574Z,0.00
2017-11-17T04:34:06.569Z,0.00
2017-11-17T04:35:06.562Z,0.00
2017-11-17T04:36:06.556Z,0.00
2017-11-17T04:37:06.551Z,0.00
2017-11-17T04:38:06.544Z,0.00
2017-11-17T04:39:06.542Z,0.00
2017-11-17T04:40:06.536Z,0.00
2017-11-17T04:41:06.531Z,0.00
2017-11-17T04:42:06.525Z,0.00
2017-11-17T04:43:06.520Z,0.00
2017-11-17T04:44:06.514Z,0.00
2017-11-17T04:45:06.509Z,0.00
2017-11-17T04:46:06.501Z,0.00
2017-11-17T04:47:06.490Z,0.00
2017-11-17T04:48:06.485Z,0.00
2017-11-17T04:49:06.480Z,0.00
2017-11-17T04:50:06.476Z,0.00
2017-11-17T04:51:06.469Z,0.00
2017-11-17T04:52:06.463Z,0.00
2017-11-17T04:53:06.456Z,0.00
2017-11-17T04:54:06.450Z,0.00
2017-11-17T04:55:06.449Z,0.00
2017-11-17T04:56:06.443Z,0.00
2017-11-17T04:57:06.435Z,0.00
2017-11-17T04:58:06.429Z,0.00
2017-11-17T04:59:06.430Z,0.00
2017-11-17T05:00:06.421Z,0.00
2017-11-17T05:01:06.414Z,0.00
2017-11-17T05:02:06.409Z,0.00
2017-11-17T05:03:06.394Z,0.00
2017-11-17T05:04:06.389Z,0.00
2017-11-17T05:05:06.383Z,0.00
2017-11-17T05:06:06.376Z,0.00
2017-11-17T05:07:06.372Z,0.00
2017-11-17T05:08:06.364Z,0.00
2017-11-17T05:09:06.359Z,0.00
2017-11-17T05:10:06.352Z,0.00
2017-11-17T05:11:06.350Z,0.00
2017-11-17T05:12:06.345Z,0.00
2017-11-17T05:13:06.337Z,0.00
2017-11-17T05:14:06.342Z,0.00
2017-11-17T05:15:06.325Z,0.00
2017-11-17T05:16:06.319Z,0.00
2017-11-17T05:17:06.311Z,0.00
2017-11-17T05:18:06.307Z,0.00
2017-11-17T05:19:06.295Z,0.00
2017-11-17T05:20:06.289Z,0.00
2017-11-17T05:21:06.282Z,0.00
2017-11-17T05:22:06.278Z,0.00
2017-11-17T05:23:06.273Z,0.00
2017-11-17T05:24:06.267Z,0.00
2017-11-17T05:25:06.269Z,0.00
2017-11-17T05:26:06.254Z,0.00
2017-11-17T05:27:06.243Z,0.00
2017-11-17T05:28:06.239Z,0.00
2017-11-17T05:29:06.229Z,0.00
2017-11-17T05:30:06.222Z,0.00
2017-11-17T05:31:06.217Z,0.00
2017-11-17T05:32:06.209Z,0.00
2017-11-17T05:33:06.201Z,0.00
2017-11-17T05:34:06.195Z,0.00
2017-11-17T05:35:06.192Z,0.00
2017-11-17T05:36:06.186Z,0.00
2017-11-17T05:37:06.180Z,0.00
2017-11-17T05:38:06.172Z,0.00
2017-11-17T05:39:06.166Z,0.00
2017-11-17T05:40:06.159Z,0.00
2017-11-17T05:41:06.152Z,0.00
2017-11-17T05:42:06.145Z,0.00
2017-11-17T05:43:06.135Z,0.00
2017-11-17T05:44:06.140Z,0.00
2017-11-17T05:45:06.123Z,0.00
2017-11-17T05:46:06.114Z,0.00
2017-11-17T05:47:06.116Z,0.00
2017-11-17T05:48:06.108Z,0.00
2017-11-17T05:49:06.096Z,0.00
2017-11-17T05:50:06.087Z,0.00
2017-11-17T05:51:06.123Z,0.00
2017-11-17T05:52:06.079Z,0.00
2017-11-17T05:53:06.072Z,0.00
2017-11-17T05:54:06.067Z,0.00
2017-11-17T05:55:06.058Z,0.00
2017-11-17T05:56:06.052Z,0.00
2017-11-17T05:57:06.046Z,0.00
2017-11-17T05:58:06.037Z,0.00
2017-11-17T05:59:06.027Z,0.00
2017-11-17T06:00:06.022Z,0.00
2017-11-17T06:01:06.014Z,0.00
2017-11-17T06:02:06.007Z,0.00
2017-11-17T06:03:06.004Z,0.00
2017-11-17T06:04:06.002Z,0.00
2017-11-17T06:05:05.988Z,0.00
2017-11-17T06:06:05.981Z,0.00
2017-11-17T06:07:05.978Z,0.00
2017-11-17T06:08:05.974Z,0.00
2017-11-17T06:09:05.968Z,0.00
2017-11-17T06:10:05.958Z,0.00
2017-11-17T06:11:05.952Z,0.00
2017-11-17T06:12:05.947Z,0.00
2017-11-17T06:13:05.941Z,0.00
2017-11-17T06:14:05.931Z,0.00
2017-11-17T06:15:05.921Z,0.00
2017-11-17T06:16:05.914Z,0.00
2017-11-17T06:17:05.909Z,0.00
2017-11-17T06:18:05.909Z,0.00
2017-11-17T06:19:05.895Z,0.00
2017-11-17T06:20:05.889Z,0.00
2017-11-17T06:21:05.881Z,4.00
2017-11-17T06:22:05.875Z,4.00
2017-11-17T06:23:05.872Z,4.00
2017-11-17T06:24:05.866Z,4.00
2017-11-17T06:25:05.871Z,4.00
2017-11-17T06:26:05.853Z,8.00
2017-11-17T06:27:05.840Z,4.00
2017-11-17T06:28:05.839Z,8.00
2017-11-17T06:29:05.828Z,8.00
2017-11-17T06:30:05.819Z,8.00
2017-11-17T06:31:05.829Z,12.00
2017-11-17T06:32:05.815Z,12.00
2017-11-17T06:33:05.808Z,16.00
2017-11-17T06:34:05.804Z,20.00
2017-11-17T06:35:05.790Z,24.00
2017-11-17T06:36:05.785Z,28.00
2017-11-17T06:37:05.777Z,32.00
2017-11-17T06:38:05.771Z,36.00
2017-11-17T06:39:05.766Z,44.00
2017-11-17T06:40:05.756Z,52.00
2017-11-17T06:41:05.744Z,60.00
2017-11-17T06:42:05.743Z,68.00
2017-11-17T06:43:05.745Z,76.00
2017-11-17T06:44:05.727Z,88.00
2017-11-17T06:45:05.724Z,100.00
2017-11-17T06:46:05.707Z,116.00
2017-11-17T06:47:05.705Z,132.00
2017-11-17T06:48:05.697Z,152.00
2017-11-17T06:49:05.696Z,164.00
2017-11-17T06:50:05.683Z,184.00
2017-11-17T06:51:05.680Z,196.00
2017-11-17T06:52:05.672Z,212.00
2017-11-17T06:53:05.661Z,220.00
2017-11-17T06:54:05.662Z,236.00
2017-11-17T06:55:05.646Z,252.00
2017-11-17T06:56:05.636Z,272.00
2017-11-17T06:57:05.634Z,296.00
2017-11-17T06:58:05.625Z,312.00
2017-11-17T06:59:05.613Z,332.00
2017-11-17T07:00:05.612Z,352.00
2017-11-17T07:01:05.615Z,368.00
2017-11-17T07:02:05.593Z,388.00
2017-11-17T07:03:05.591Z,408.00
2017-11-17T07:04:05.580Z,428.00
2017-11-17T07:05:05.573Z,456.00
2017-11-17T07:06:05.584Z,488.00
2017-11-17T07:07:05.568Z,524.00
2017-11-17T07:08:05.575Z,552.00
2017-11-17T07:09:05.567Z,580.00
2017-11-17T07:10:05.540Z,624.00
2017-11-17T07:11:05.529Z,672.00
2017-11-17T07:12:05.523Z,724.00
2017-11-17T07:13:05.512Z,776.00
2017-11-17T07:14:05.510Z,824.00
2017-11-17T07:15:05.499Z,872.00
2017-11-17T07:16:05.488Z,936.00
2017-11-17T07:17:05.500Z,984.00
2017-11-17T07:18:05.474Z,1060.00
2017-11-17T07:19:05.476Z,1136.00
2017-11-17T07:20:05.468Z,1192.00
2017-11-17T07:21:05.461Z,1224.00
2017-11-17T07:22:05.456Z,1252.00
2017-11-17T07:23:05.441Z,1292.00
2017-11-17T07:24:05.441Z,1308.00
2017-11-17T07:25:05.432Z,1344.00
2017-11-17T07:26:05.427Z,1392.00
2017-11-17T07:27:05.410Z,1476.00
2017-11-17T07:28:05.411Z,1564.00
2017-11-17T07:29:05.397Z,1648.00
2017-11-17T07:30:05.389Z,1740.00
2017-11-17T07:31:05.393Z,1840.00
2017-11-17T07:32:05.386Z,1968.00
2017-11-17T07:33:05.375Z,2200.00
2017-11-17T07:34:05.373Z,2396.00
2017-11-17T07:35:05.353Z,2592.00
2017-11-17T07:36:05.357Z,2732.00
2017-11-17T07:37:05.348Z,2852.00
2017-11-17T07:38:05.338Z,3052.00
2017-11-17T07:39:05.332Z,3164.00
2017-11-17T07:40:05.322Z,3508.00
2017-11-17T07:41:05.315Z,3916.00
2017-11-17T07:42:05.313Z,4308.00
2017-11-17T07:43:05.305Z,4576.00
2017-11-17T07:44:05.303Z,4560.00
2017-11-17T07:45:05.296Z,4728.00
2017-11-17T07:46:05.290Z,5292.00
2017-11-17T07:47:05.279Z,5316.00
2017-11-17T07:48:05.273Z,3584.00
2017-11-17T07:49:05.266Z,2840.00
2017-11-17T07:50:05.259Z,3016.00
2017-11-17T07:51:05.250Z,3636.00
2017-11-17T07:52:05.261Z,6888.00
2017-11-17T07:53:05.238Z,5584.00
2017-11-17T07:54:05.233Z,7168.00
2017-11-17T07:55:05.226Z,7712.00
2017-11-17T07:56:05.221Z,8076.00
2017-11-17T07:57:05.218Z,8128.00
2017-11-17T07:58:05.213Z,8284.00
2017-11-17T07:59:05.215Z,8696.00
2017-11-17T08:00:05.215Z,8804.00
2017-11-17T08:01:05.202Z,8948.00
2017-11-17T08:02:05.193Z,7948.00
2017-11-17T08:03:05.189Z,3000.00
2017-11-17T08:04:05.186Z,2920.00
2017-11-17T08:05:05.181Z,3016.00
2017-11-17T08:06:05.179Z,3088.00
2017-11-17T08:07:05.169Z,3208.00
2017-11-17T08:08:05.165Z,3364.00
2017-11-17T08:09:05.162Z,3568.00
2017-11-17T08:10:05.160Z,4348.00
2017-11-17T08:11:05.154Z,11752.00
2017-11-17T08:12:05.149Z,12176.00
2017-11-17T08:13:05.145Z,12376.00
2017-11-17T08:14:05.140Z,12844.00
2017-11-17T08:15:05.142Z,13504.00
2017-11-17T08:16:05.139Z,13760.00
2017-11-17T08:17:05.135Z,14016.00
2017-11-17T08:18:05.130Z,14208.00
2017-11-17T08:19:05.127Z,14336.00
2017-11-17T08:20:05.127Z,14560.00
2017-11-17T08:21:05.124Z,14400.00
2017-11-17T08:22:05.119Z,14464.00
2017-11-17T08:23:05.113Z,14304.00
2017-11-17T08:24:05.121Z,12396.00
2017-11-17T08:25:05.111Z,8468.00
2017-11-17T08:26:05.109Z,6480.00
2017-11-17T08:27:05.108Z,4432.00
2017-11-17T08:28:05.106Z,4196.00
2017-11-17T08:29:05.106Z,4040.00
2017-11-17T08:30:05.104Z,3940.00
2017-11-17T08:31:05.111Z,3840.00
2017-11-17T08:32:05.108Z,3776.00
2017-11-17T08:33:05.106Z,3768.00
2017-11-17T08:34:05.108Z,3748.00
2017-11-17T08:35:05.105Z,3684.00
2017-11-17T08:36:05.097Z,3560.00
2017-11-17T08:37:05.096Z,3324.00
2017-11-17T08:38:05.094Z,3028.00
2017-11-17T08:39:05.108Z,2964.00
2017-11-17T08:40:05.096Z,3008.00
2017-11-17T08:41:05.094Z,3116.00
2017-11-17T08:42:05.091Z,3376.00
2017-11-17T08:43:05.090Z,4180.00
2017-11-17T08:44:05.089Z,4732.00
2017-11-17T08:45:05.086Z,5544.00
2017-11-17T08:46:05.082Z,6228.00
2017-11-17T08:47:05.076Z,6872.00
2017-11-17T08:48:05.080Z,7328.00
2017-11-17T08:49:05.076Z,7908.00
2017-11-17T08:50:05.068Z,8348.00
2017-11-17T08:51:05.065Z,8796.00
2017-11-17T08:52:05.063Z,9600.00
2017-11-17T08:53:05.060Z,9868.00
2017-11-17T08:54:05.060Z,8848.00
2017-11-17T08:55:05.060Z,9104.00
2017-11-17T08:56:05.057Z,10356.00
2017-11-17T08:57:05.058Z,10320.00
2017-11-17T08:58:05.057Z,10380.00
2017-11-17T08:59:05.054Z,10300.00
2017-11-17T09:00:05.055Z,10364.00
2017-11-17T09:01:05.054Z,10468.00
2017-11-17T09:02:05.054Z,10516.00
2017-11-17T09:03:05.048Z,10524.00
2017-11-17T09:04:05.048Z,10576.00
2017-11-17T09:05:05.050Z,10724.00
2017-11-17T09:06:05.048Z,10812.00
2017-11-17T09:07:05.054Z,10776.00
2017-11-17T09:08:05.051Z,10888.00
2017-11-17T09:09:05.053Z,10964.00
2017-11-17T09:10:05.054Z,11124.00
2017-11-17T09:11:05.062Z,11080.00
2017-11-17T09:12:05.062Z,11136.00
2017-11-17T09:13:05.067Z,11372.00
2017-11-17T09:14:05.068Z,11440.00
2017-11-17T09:15:05.071Z,11560.00
2017-11-17T09:16:05.074Z,11712.00
2017-11-17T09:17:05.077Z,12028.00
2017-11-17T09:18:05.091Z,12380.00
2017-11-17T09:19:05.079Z,12560.00
2017-11-17T09:20:05.084Z,12700.00
2017-11-17T09:21:05.086Z,12968.00
2017-11-17T09:22:05.091Z,11968.00
2017-11-17T09:23:05.097Z,9980.00
2017-11-17T09:24:05.130Z,9736.00
2017-11-17T09:25:05.109Z,6540.00
2017-11-17T09:26:05.110Z,5412.00
2017-11-17T09:27:05.119Z,5084.00
2017-11-17T09:28:05.123Z,5564.00
2017-11-17T09:29:05.126Z,10960.00
2017-11-17T09:30:05.132Z,11784.00
2017-11-17T09:31:05.135Z,11880.00
2017-11-17T09:32:05.141Z,12012.00
2017-11-17T09:33:05.144Z,11680.00
2017-11-17T09:34:05.148Z,10216.00
2017-11-17T09:35:05.149Z,9940.00
2017-11-17T09:36:05.154Z,12044.00
2017-11-17T09:37:05.156Z,11988.00
2017-11-17T09:38:05.160Z,12040.00
2017-11-17T09:39:05.166Z,11908.00
2017-11-17T09:40:05.169Z,11796.00
2017-11-17T09:41:05.180Z,11776.00
2017-11-17T09:42:05.178Z,11768.00
2017-11-17T09:43:05.190Z,11860.00
2017-11-17T09:44:05.196Z,11912.00
2017-11-17T09:45:05.208Z,11904.00
2017-11-17T09:46:05.203Z,11524.00
2017-11-17T09:47:05.209Z,12116.00
2017-11-17T09:48:05.215Z,12284.00
2017-11-17T09:49:05.222Z,12336.00
2017-11-17T09:50:05.228Z,12508.00
2017-11-17T09:51:05.228Z,12740.00
2017-11-17T09:52:05.233Z,12884.00
2017-11-17T09:53:05.239Z,12944.00
2017-11-17T09:54:05.245Z,12928.00
2017-11-17T09:55:05.252Z,12716.00
2017-11-17T09:56:05.258Z,12492.00
2017-11-17T09:57:05.265Z,12316.00
2017-11-17T09:58:05.271Z,12236.00
2017-11-17T09:59:05.281Z,12284.00
2017-11-17T10:00:05.288Z,12536.00
2017-11-17T10:01:05.296Z,12488.00
2017-11-17T10:02:05.299Z,12348.00
2017-11-17T10:03:05.306Z,12820.00
2017-11-17T10:04:05.313Z,12664.00
2017-11-17T10:05:05.321Z,12660.00
2017-11-17T10:06:05.325Z,12612.00
2017-11-17T10:07:05.329Z,12380.00
2017-11-17T10:08:05.335Z,12352.00
2017-11-17T10:09:05.343Z,12732.00
2017-11-17T10:10:05.350Z,12728.00
2017-11-17T10:11:05.356Z,12812.00
2017-11-17T10:12:05.365Z,11616.00
2017-11-17T10:13:05.372Z,11212.00
2017-11-17T10:14:05.378Z,12592.00
2017-11-17T10:15:05.394Z,11928.00
2017-11-17T10:16:05.397Z,11632.00
2017-11-17T10:17:05.404Z,11436.00
2017-11-17T10:18:05.409Z,11676.00
2017-11-17T10:19:05.421Z,11516.00
2017-11-17T10:20:05.430Z,11452.00
2017-11-17T10:21:05.433Z,11456.00
2017-11-17T10:22:05.438Z,11592.00
2017-11-17T10:23:05.442Z,11824.00
2017-11-17T10:24:05.455Z,11836.00
2017-11-17T10:25:05.458Z,11924.00
2017-11-17T10:26:05.463Z,11808.00
2017-11-17T10:27:05.470Z,11736.00
2017-11-17T10:28:05.485Z,11820.00
2017-11-17T10:29:05.485Z,12428.00
2017-11-17T10:30:05.491Z,13724.00
2017-11-17T10:31:05.503Z,13736.00
2017-11-17T10:32:05.509Z,13636.00
2017-11-17T10:33:05.518Z,13892.00
2017-11-17T10:34:05.524Z,13856.00
2017-11-17T10:35:05.532Z,13744.00
2017-11-17T10:36:05.539Z,13628.00
2017-11-17T10:37:05.545Z,13516.00
2017-11-17T10:38:05.552Z,13520.00
2017-11-17T10:39:05.557Z,13312.00
2017-11-17T10:40:05.564Z,13264.00
2017-11-17T10:41:05.571Z,13204.00
2017-11-17T10:42:05.578Z,13288.00
2017-11-17T10:43:05.595Z,13164.00
2017-11-17T10:44:05.598Z,13152.00
2017-11-17T10:45:05.604Z,13012.00
2017-11-17T10:46:05.611Z,12868.00
2017-11-17T10:47:05.614Z,12760.00
2017-11-17T10:48:05.623Z,12752.00
2017-11-17T10:49:05.628Z,12704.00
2017-11-17T10:50:05.639Z,12552.00
2017-11-17T10:51:05.643Z,12404.00
2017-11-17T10:52:05.651Z,12360.00
2017-11-17T10:53:05.659Z,12172.00
2017-11-17T10:54:05.668Z,11988.00
2017-11-17T10:55:05.677Z,11988.00
2017-11-17T10:56:05.684Z,11860.00
2017-11-17T10:57:05.692Z,11688.00
2017-11-17T10:58:05.699Z,11632.00
2017-11-17T10:59:05.711Z,11540.00
2017-11-17T11:00:05.714Z,11528.00
2017-11-17T11:01:05.720Z,11236.00
2017-11-17T11:02:05.725Z,11560.00
2017-11-17T11:03:05.730Z,11424.00
2017-11-17T11:04:05.736Z,11396.00
2017-11-17T11:05:05.747Z,11240.00
2017-11-17T11:06:05.748Z,10988.00
2017-11-17T11:07:05.755Z,10920.00
2017-11-17T11:08:05.763Z,10852.00
2017-11-17T11:09:05.769Z,10816.00
2017-11-17T11:10:05.776Z,10776.00
2017-11-17T11:11:05.786Z,10748.00
2017-11-17T11:12:05.792Z,10676.00
2017-11-17T11:13:05.800Z,10360.00
2017-11-17T11:14:05.804Z,9568.00
2017-11-17T11:15:05.811Z,7456.00
2017-11-17T11:16:05.818Z,5804.00
2017-11-17T11:17:05.822Z,5352.00
2017-11-17T11:18:05.826Z,5256.00
2017-11-17T11:19:05.827Z,5176.00
2017-11-17T11:20:05.832Z,5076.00
2017-11-17T11:21:05.838Z,5016.00
2017-11-17T11:22:05.844Z,4944.00
2017-11-17T11:23:05.853Z,4928.00
2017-11-17T11:24:05.854Z,4908.00
2017-11-17T11:25:05.858Z,4896.00
2017-11-17T11:26:05.859Z,4852.00
2017-11-17T11:27:05.867Z,4852.00
2017-11-17T11:28:05.879Z,4812.00
2017-11-17T11:29:05.875Z,4776.00
2017-11-17T11:30:05.878Z,4728.00
2017-11-17T11:31:05.880Z,4716.00
2017-11-17T11:32:05.881Z,4664.00
2017-11-17T11:33:05.893Z,4652.00
2017-11-17T11:34:05.888Z,4648.00
2017-11-17T11:35:05.886Z,4632.00
2017-11-17T11:36:05.889Z,4612.00
2017-11-17T11:37:05.894Z,4588.00
2017-11-17T11:38:05.891Z,4572.00
2017-11-17T11:39:05.894Z,4560.00
2017-11-17T11:40:05.894Z,4552.00
2017-11-17T11:41:05.897Z,4508.00
2017-11-17T11:42:05.898Z,4472.00
2017-11-17T11:43:05.902Z,4412.00
2017-11-17T11:44:05.905Z,4372.00
2017-11-17T11:45:05.906Z,4400.00
2017-11-17T11:46:05.905Z,4460.00
2017-11-17T11:47:05.903Z,4500.00
2017-11-17T11:48:05.904Z,4600.00
2017-11-17T11:49:05.908Z,4176.00
2017-11-17T11:50:05.904Z,4204.00
2017-11-17T11:51:05.911Z,5128.00
2017-11-17T11:52:05.907Z,5288.00
2017-11-17T11:53:05.916Z,5492.00
2017-11-17T11:54:05.965Z,5584.00
2017-11-17T11:55:05.907Z,5620.00
2017-11-17T11:56:05.909Z,5504.00
2017-11-17T11:57:05.910Z,5572.00
2017-11-17T11:58:05.910Z,5780.00
2017-11-17T11:59:05.910Z,6084.00
2017-11-17T12:00:05.903Z,6592.00
2017-11-17T12:01:05.904Z,7332.00
2017-11-17T12:02:05.902Z,7972.00
2017-11-17T12:03:05.902Z,7944.00
2017-11-17T12:04:05.903Z,7732.00
2017-11-17T12:05:05.903Z,7348.00
2017-11-17T12:06:05.901Z,6948.00
2017-11-17T12:07:05.906Z,6724.00
2017-11-17T12:08:05.906Z,6656.00
2017-11-17T12:09:05.907Z,6332.00
2017-11-17T12:10:05.904Z,5788.00
2017-11-17T12:11:05.904Z,5080.00
2017-11-17T12:12:05.905Z,4656.00
2017-11-17T12:13:05.905Z,4396.00
2017-11-17T12:14:05.906Z,4088.00
2017-11-17T12:15:05.899Z,3872.00
2017-11-17T12:16:05.899Z,3760.00
2017-11-17T12:17:05.898Z,3864.00
2017-11-17T12:18:05.899Z,4104.00
2017-11-17T12:19:05.897Z,4116.00
2017-11-17T12:20:05.897Z,3864.00
2017-11-17T12:21:05.897Z,3072.00
2017-11-17T12:22:05.896Z,2980.00
2017-11-17T12:23:05.899Z,2884.00
2017-11-17T12:24:05.899Z,3252.00
2017-11-17T12:25:05.897Z,3376.00
2017-11-17T12:26:05.898Z,3360.00
2017-11-17T12:27:05.897Z,3352.00
2017-11-17T12:28:05.894Z,3280.00
2017-11-17T12:29:05.894Z,3188.00
2017-11-17T12:30:05.891Z,3076.00
2017-11-17T12:31:05.886Z,2724.00
2017-11-17T12:32:05.885Z,2200.00
2017-11-17T12:33:05.883Z,2504.00
2017-11-17T12:34:05.884Z,2840.00
2017-11-17T12:35:05.879Z,2976.00
2017-11-17T12:36:05.882Z,2920.00
2017-11-17T12:37:05.885Z,2900.00
2017-11-17T12:38:05.873Z,2892.00